Time;durP1;ratioP1;P1;durP2;ratioP2;P2;SDS_P1;SDS_P2;PMS_P1;PMS_P2;Temp;Humidity;BMP_temperature;BMP_pressure;BME280_temperature;BME280_humidity;BME280_pressure;Samples;Min_cycle;Max_cycle;Signal;HPM_P1;HPM_P2
2021/08/09 00:01:26;;;;;;;3.92;1.80;;;;;;;;;;6244832;28;20045;-79
2021/08/09 00:04:28;;;;;;;3.28;2.20;;;;;;;;;;6221671;28;20046;-79
2021/08/09 00:07:29;;;;;;;4.22;2.20;;;;;;;;;;6244550;28;20440;-79
2021/08/09 00:10:32;;;;;;;5.70;2.30;;;;;;;;;;6246922;28;20051;-78
2021/08/09 00:13:33;;;;;;;3.17;2.20;;;;;;;;;;6244271;28;20049;-79
2021/08/09 00:16:35;;;;;;;4.95;2.53;;;;;;;;;;6220856;28;20053;-79
2021/08/09 00:19:37;;;;;;;3.58;2.20;;;;;;;;;;6228004;28;20046;-79
2021/08/09 00:22:39;;;;;;;6.93;2.38;;;;;;;;;;6221728;28;20053;-79
2021/08/09 00:25:40;;;;;;;5.30;2.20;;;;;;;;;;6218947;28;20045;-79
2021/08/09 00:28:42;;;;;;;4.05;2.25;;;;;;;;;;6223602;28;20495;-79
2021/08/09 00:31:44;;;;;;;3.65;1.92;;;;;;;;;;6221072;28;20052;-78
2021/08/09 00:34:49;;;;;;;4.45;2.10;;;;;;;;;;6218687;28;20748;-78
2021/08/09 00:37:50;;;;;;;3.72;2.03;;;;;;;;;;6216683;28;20046;-79
2021/08/09 00:40:52;;;;;;;3.20;1.80;;;;;;;;;;6221382;28;20049;-79
2021/08/09 00:43:55;;;;;;;3.63;2.10;;;;;;;;;;6231134;28;20038;-79
2021/08/09 00:46:57;;;;;;;4.20;2.17;;;;;;;;;;6221411;28;20065;-78
2021/08/09 00:49:59;;;;;;;4.57;1.98;;;;;;;;;;6221629;28;20053;-79
2021/08/09 00:53:02;;;;;;;6.75;2.20;;;;;;;;;;6207740;28;20070;-79
2021/08/09 00:56:09;;;;;;;3.88;2.10;;;;;;;;;;6220365;28;20347;-80
2021/08/09 00:59:12;;;;;;;2.45;1.88;;;;;;;;;;6243520;28;20049;-79
2021/08/09 01:02:13;;;;;;;5.53;2.28;;;;;;;;;;6246048;28;20041;-80
2021/08/09 01:05:17;;;;;;;2.38;1.83;;;;;;;;;;6244105;28;20045;-80
2021/08/09 01:08:32;;;;;;;3.95;1.70;;;;;;;;;;6228995;28;20045;-80
2021/08/09 01:11:51;;;;;;;3.28;1.77;;;;;;;;;;6234104;28;20049;-80
2021/08/09 01:15:04;;;;;;;6.45;1.95;;;;;;;;;;6231953;28;20065;-80
2021/08/09 01:18:14;;;;;;;6.45;2.17;;;;;;;;;;6247798;28;20048;-79
2021/08/09 01:21:18;;;;;;;3.35;2.08;;;;;;;;;;6246949;28;20107;-80
2021/08/09 01:24:38;;;;;;;3.38;2.00;;;;;;;;;;6231866;28;20045;-80
2021/08/09 01:27:41;;;;;;;4.72;1.90;;;;;;;;;;6231778;28;20048;-80
2021/08/09 01:30:44;;;;;;;;;;;;;;;;;;6231788;28;20045;-80
2021/08/09 01:33:47;;;;;;;4.43;1.92;;;;;;;;;;6247216;28;19924;-79
2021/08/09 01:36:51;;;;;;;3.50;1.90;;;;;;;;;;6231531;28;20037;-79
2021/08/09 01:39:54;;;;;;;6.00;2.10;;;;;;;;;;6226078;28;20048;-79
2021/08/09 01:42:57;;;;;;;3.95;1.70;;;;;;;;;;6238021;28;20038;-80
2021/08/09 01:46:00;;;;;;;7.22;2.05;;;;;;;;;;6224459;28;20061;-80
2021/08/09 01:49:05;;;;;;;2.47;1.83;;;;;;;;;;6243037;28;20038;-80
2021/08/09 01:52:08;;;;;;;4.65;2.00;;;;;;;;;;6215475;28;20061;-80
2021/08/09 01:55:13;;;;;;;5.30;1.80;;;;;;;;;;6227125;28;20415;-80
2021/08/09 01:58:19;;;;;;;3.83;1.90;;;;;;;;;;6224408;28;20057;-80
2021/08/09 02:01:22;;;;;;;3.30;1.87;;;;;;;;;;6233837;28;20053;-79
2021/08/09 02:04:24;;;;;;;3.05;1.88;;;;;;;;;;6240469;28;20460;-80
2021/08/09 02:07:28;;;;;;;4.75;1.88;;;;;;;;;;6210334;28;20056;-80
2021/08/09 02:10:31;;;;;;;4.53;2.17;;;;;;;;;;6208885;28;20058;-80
2021/08/09 02:13:44;;;;;;;4.10;2.10;;;;;;;;;;6227686;28;20037;-80
2021/08/09 02:16:52;;;;;;;4.70;1.90;;;;;;;;;;6248816;28;20523;-80
2021/08/09 02:20:10;;;;;;;5.47;1.83;;;;;;;;;;6244847;28;20041;-80
2021/08/09 02:23:52;;;;;;;4.40;1.80;;;;;;;;;;6232321;28;20041;-80
2021/08/09 02:27:02;;;;;;;5.00;2.10;;;;;;;;;;6231850;28;20080;-80
2021/08/09 02:30:05;;;;;;;3.15;1.75;;;;;;;;;;6231806;28;20045;-80
2021/08/09 02:33:08;;;;;;;3.92;2.10;;;;;;;;;;6249601;28;20132;-80
2021/08/09 02:36:10;;;;;;;4.10;1.90;;;;;;;;;;6214396;28;20104;-80
2021/08/09 02:39:13;;;;;;;3.58;1.80;;;;;;;;;;6233009;28;20037;-80
2021/08/09 02:42:16;;;;;;;3.13;2.20;;;;;;;;;;6216127;28;20076;-80
2021/08/09 02:45:18;;;;;;;4.68;1.80;;;;;;;;;;6206957;28;20133;-80
2021/08/09 02:48:21;;;;;;;3.47;1.80;;;;;;;;;;6224330;28;20052;-80
2021/08/09 02:51:24;;;;;;;4.68;2.05;;;;;;;;;;6207716;28;20054;-80
2021/08/09 02:54:28;;;;;;;3.38;1.92;;;;;;;;;;6199905;28;20038;-80
2021/08/09 02:57:33;;;;;;;3.50;2.10;;;;;;;;;;6208053;28;20110;-80
2021/08/09 03:00:36;;;;;;;4.25;1.80;;;;;;;;;;6230782;28;20038;-80
2021/08/09 03:03:39;;;;;;;5.40;2.00;;;;;;;;;;6224467;28;20136;-80
2021/08/09 03:06:42;;;;;;;6.50;2.00;;;;;;;;;;6238878;28;20103;-80
2021/08/09 03:09:44;;;;;;;3.92;1.73;;;;;;;;;;6248137;28;20041;-80
2021/08/09 03:12:55;;;;;;;2.88;1.95;;;;;;;;;;6230370;28;20474;-80
2021/08/09 03:15:57;;;;;;;5.55;2.22;;;;;;;;;;6219414;28;20045;-79
2021/08/09 03:18:59;;;;;;;3.63;1.97;;;;;;;;;;6236408;28;20065;-80
2021/08/09 03:22:01;;;;;;;2.83;1.83;;;;;;;;;;6223623;28;20045;-80
2021/08/09 03:25:06;;;;;;;3.63;1.60;;;;;;;;;;6221741;28;20041;-80
2021/08/09 03:28:07;;;;;;;5.22;1.85;;;;;;;;;;6221456;28;20037;-81
2021/08/09 03:31:09;;;;;;;3.88;1.95;;;;;;;;;;6230192;28;20072;-80
2021/08/09 03:34:11;;;;;;;3.20;1.73;;;;;;;;;;6250696;28;20042;-80
2021/08/09 03:37:12;;;;;;;3.33;1.83;;;;;;;;;;6222601;28;20041;-82
2021/08/09 03:40:15;;;;;;;3.63;1.70;;;;;;;;;;6220982;28;20619;-82
2021/08/09 03:43:23;;;;;;;5.03;2.13;;;;;;;;;;6221325;28;20053;-81
2021/08/09 03:46:25;;;;;;;4.57;2.03;;;;;;;;;;6203790;28;20053;-81
2021/08/09 03:49:26;;;;;;;2.80;1.73;;;;;;;;;;6221581;28;20054;-81
2021/08/09 03:52:28;;;;;;;3.92;1.83;;;;;;;;;;6222276;28;20037;-81
2021/08/09 03:55:29;;;;;;;6.57;2.72;;;;;;;;;;6220617;28;20133;-81
2021/08/09 03:58:31;;;;;;;3.72;1.70;;;;;;;;;;6221339;28;20105;-81
2021/08/09 04:01:40;;;;;;;2.55;1.80;;;;;;;;;;6219288;28;20077;-81
2021/08/09 04:04:42;;;;;;;5.35;1.85;;;;;;;;;;6217508;28;20185;-81
2021/08/09 04:07:45;;;;;;;5.30;1.90;;;;;;;;;;6235192;28;20164;-81
2021/08/09 04:10:47;;;;;;;4.85;1.80;;;;;;;;;;6218642;28;20534;-81
2021/08/09 04:13:48;;;;;;;2.00;1.70;;;;;;;;;;6233992;28;20050;-81
2021/08/09 04:16:51;;;;;;;2.53;1.83;;;;;;;;;;6218355;28;20060;-81
2021/08/09 04:19:53;;;;;;;3.45;2.15;;;;;;;;;;6215556;28;20045;-81
2021/08/09 04:22:54;;;;;;;3.17;1.52;;;;;;;;;;6217862;28;20134;-81
2021/08/09 04:25:56;;;;;;;2.22;1.60;;;;;;;;;;6200621;28;20056;-81
2021/08/09 04:28:59;;;;;;;5.55;2.50;;;;;;;;;;6210760;28;20045;-81
2021/08/09 04:32:11;;;;;;;3.47;2.10;;;;;;;;;;6211293;28;20045;-81
2021/08/09 04:35:14;;;;;;;3.95;1.92;;;;;;;;;;6200672;28;20057;-81
2021/08/09 04:38:20;;;;;;;4.45;1.80;;;;;;;;;;6202955;28;20503;-80
2021/08/09 04:41:23;;;;;;;4.00;1.70;;;;;;;;;;6220699;28;20046;-80
2021/08/09 04:44:24;;;;;;;4.97;1.83;;;;;;;;;;6234962;28;20111;-80
2021/08/09 04:47:29;;;;;;;7.32;2.83;;;;;;;;;;6219285;28;20411;-80
2021/08/09 04:50:32;;;;;;;3.35;2.00;;;;;;;;;;6218781;28;20041;-80
2021/08/09 04:53:34;;;;;;;3.35;1.90;;;;;;;;;;6202863;28;20038;-81
2021/08/09 04:56:36;;;;;;;3.38;1.90;;;;;;;;;;6219143;28;20041;-80
2021/08/09 04:59:41;;;;;;;2.58;1.90;;;;;;;;;;6216247;28;20434;-80
2021/08/09 05:02:43;;;;;;;4.75;1.90;;;;;;;;;;6211895;28;20046;-80
2021/08/09 05:05:48;;;;;;;3.70;2.05;;;;;;;;;;6229854;28;20054;-80
2021/08/09 05:08:51;;;;;;;5.45;2.03;;;;;;;;;;6225448;28;20041;-80
2021/08/09 05:11:56;;;;;;;5.13;1.90;;;;;;;;;;6215079;28;20049;-80
2021/08/09 05:15:01;;;;;;;;;;;;;;;;;;6213408;28;20514;-80
2021/08/09 05:18:03;;;;;;;4.68;2.20;;;;;;;;;;6224641;28;19927;-80
2021/08/09 05:21:05;;;;;;;5.32;2.10;;;;;;;;;;6207294;28;20503;-80
2021/08/09 05:24:07;;;;;;;2.60;1.95;;;;;;;;;;6225122;28;20052;-80
2021/08/09 05:27:08;;;;;;;2.30;1.90;;;;;;;;;;6201660;28;20034;-80
2021/08/09 05:30:11;;;;;;;3.33;1.77;;;;;;;;;;6217040;28;20048;-80
2021/08/09 05:33:14;;;;;;;4.40;1.73;;;;;;;;;;6236635;28;20128;-81
2021/08/09 05:36:15;;;;;;;6.70;2.30;;;;;;;;;;6240078;28;20077;-80
2021/08/09 05:39:17;;;;;;;4.80;1.98;;;;;;;;;;6199737;28;20115;-80
2021/08/09 05:42:19;;;;;;;4.15;2.17;;;;;;;;;;6225127;28;20506;-80
2021/08/09 05:45:21;;;;;;;3.13;1.90;;;;;;;;;;6195873;28;20116;-80
2021/08/09 05:48:23;;;;;;;4.32;1.92;;;;;;;;;;6215804;28;20053;-81
2021/08/09 05:51:24;;;;;;;3.00;1.95;;;;;;;;;;6208889;28;20048;-80
2021/08/09 05:54:29;;;;;;;3.13;1.88;;;;;;;;;;6215687;28;20418;-80
2021/08/09 05:57:31;;;;;;;3.45;1.60;;;;;;;;;;6226300;28;20042;-80
2021/08/09 06:00:33;;;;;;;4.70;2.17;;;;;;;;;;6221318;28;20050;-80
2021/08/09 06:03:41;;;;;;;3.35;1.63;;;;;;;;;;6204252;28;20076;-82
2021/08/09 06:06:43;;;;;;;4.43;2.40;;;;;;;;;;6195583;28;20066;-80
2021/08/09 06:09:50;;;;;;;3.97;1.90;;;;;;;;;;6196893;28;20038;-81
2021/08/09 06:12:52;;;;;;;3.65;1.80;;;;;;;;;;6214310;28;20046;-81
2021/08/09 06:15:54;;;;;;;3.80;1.52;;;;;;;;;;6196546;28;20049;-81
2021/08/09 06:19:00;;;;;;;3.60;1.70;;;;;;;;;;6190711;28;20046;-81
2021/08/09 06:22:06;;;;;;;3.47;1.90;;;;;;;;;;6211144;28;20452;-80
2021/08/09 06:25:14;;;;;;;2.85;1.60;;;;;;;;;;6197372;28;20044;-80
2021/08/09 06:28:16;;;;;;;3.55;1.80;;;;;;;;;;6245623;28;20045;-82
2021/08/09 06:31:18;;;;;;;3.90;1.75;;;;;;;;;;6207417;28;20053;-82
2021/08/09 06:34:20;;;;;;;5.43;2.20;;;;;;;;;;6218530;28;20071;-80
2021/08/09 06:37:22;;;;;;;4.30;1.90;;;;;;;;;;6231775;28;20049;-82
2021/08/09 06:40:23;;;;;;;2.85;1.77;;;;;;;;;;6243567;28;20103;-81
2021/08/09 06:43:26;;;;;;;6.13;1.95;;;;;;;;;;6242506;28;20045;-81
2021/08/09 06:46:32;;;;;;;3.72;1.77;;;;;;;;;;6225424;28;20428;-81
2021/08/09 06:49:34;;;;;;;5.20;2.72;;;;;;;;;;6226627;28;20046;-81
2021/08/09 06:52:36;;;;;;;5.03;1.80;;;;;;;;;;6244740;28;20124;-80
2021/08/09 06:55:39;;;;;;;3.45;1.50;;;;;;;;;;6224959;28;20462;-81
2021/08/09 06:58:42;;;;;;;3.25;1.52;;;;;;;;;;6240126;28;20056;-79
2021/08/09 07:01:45;;;;;;;1.60;1.50;;;;;;;;;;6247631;28;20073;-80
2021/08/09 07:04:47;;;;;;;4.63;1.80;;;;;;;;;;6258101;28;20049;-79
2021/08/09 07:07:50;;;;;;;1.80;1.42;;;;;;;;;;6242120;28;20045;-79
2021/08/09 07:10:53;;;;;;;5.57;1.58;;;;;;;;;;6247841;28;20124;-79
2021/08/09 07:13:57;;;;;;;2.55;1.33;;;;;;;;;;6246612;28;20049;-79
2021/08/09 07:17:02;;;;;;;3.35;1.63;;;;;;;;;;6230511;28;20548;-79
2021/08/09 07:20:07;;;;;;;5.32;2.00;;;;;;;;;;6229694;28;20104;-79
2021/08/09 07:23:10;;;;;;;2.55;1.55;;;;;;;;;;6230789;28;20037;-79
2021/08/09 07:26:11;;;;;;;2.58;1.95;;;;;;;;;;6228510;28;20052;-79
2021/08/09 07:29:13;;;;;;;3.63;1.33;;;;;;;;;;6244966;28;20196;-79
2021/08/09 07:32:15;;;;;;;3.30;1.48;;;;;;;;;;6231688;28;20078;-79
2021/08/09 07:35:17;;;;;;;1.58;1.40;;;;;;;;;;6245465;28;20041;-80
2021/08/09 07:38:20;;;;;;;2.13;1.35;;;;;;;;;;6248194;28;20080;-79
2021/08/09 07:41:22;;;;;;;6.13;1.50;;;;;;;;;;6211444;28;20599;-80
2021/08/09 07:44:24;;;;;;;1.85;1.20;;;;;;;;;;6209542;28;20045;-81
2021/08/09 07:47:26;;;;;;;3.77;1.50;;;;;;;;;;6227188;28;20049;-80
2021/08/09 07:50:28;;;;;;;3.25;1.10;;;;;;;;;;6244448;28;20510;-78
2021/08/09 07:53:29;;;;;;;4.30;2.30;;;;;;;;;;6230273;28;20042;-80
2021/08/09 07:56:31;;;;;;;6.32;1.80;;;;;;;;;;6232609;28;20051;-80
2021/08/09 07:59:34;;;;;;;3.97;1.40;;;;;;;;;;6224804;28;20045;-80
2021/08/09 08:02:36;;;;;;;1.92;1.10;;;;;;;;;;6224564;28;20042;-81
2021/08/09 08:05:38;;;;;;;5.97;1.38;;;;;;;;;;6233117;28;20045;-79
2021/08/09 08:08:40;;;;;;;13.55;2.38;;;;;;;;;;6209588;28;20534;-79
2021/08/09 08:11:41;;;;;;;4.97;1.15;;;;;;;;;;6227363;28;20040;-80
2021/08/09 08:14:43;;;;;;;1.63;1.17;;;;;;;;;;6223864;28;20119;-82
2021/08/09 08:17:46;;;;;;;4.28;1.30;;;;;;;;;;6225062;28;20037;-80
2021/08/09 08:20:49;;;;;;;2.90;1.35;;;;;;;;;;6216127;28;20092;-80
2021/08/09 08:23:56;;;;;;;2.65;1.20;;;;;;;;;;6201302;28;20102;-80
2021/08/09 08:26:58;;;;;;;2.90;1.50;;;;;;;;;;6183137;28;20046;-83
2021/08/09 08:30:00;;;;;;;3.03;1.13;;;;;;;;;;6222282;28;20050;-80
2021/08/09 08:33:22;;;;;;;1.77;1.30;;;;;;;;;;6231609;28;20053;-81
2021/08/09 08:36:24;;;;;;;2.55;1.20;;;;;;;;;;6231762;28;20053;-81
2021/08/09 08:39:26;;;;;;;2.35;0.95;;;;;;;;;;6231668;28;20045;-81
2021/08/09 08:42:28;;;;;;;3.42;1.10;;;;;;;;;;6231020;28;20041;-81
2021/08/09 08:45:32;;;;;;;3.58;1.10;;;;;;;;;;6230743;28;20083;-82
2021/08/09 08:48:37;;;;;;;2.90;1.10;;;;;;;;;;6250595;28;20045;-78
2021/08/09 08:51:55;;;;;;;2.33;1.30;;;;;;;;;;6217908;28;20113;-82
2021/08/09 08:54:58;;;;;;;3.83;1.05;;;;;;;;;;6185997;28;20053;-83
2021/08/09 08:57:59;;;;;;;5.40;1.30;;;;;;;;;;6204538;28;20048;-80
2021/08/09 09:01:01;;;;;;;3.55;1.10;;;;;;;;;;6226176;28;20041;-79
2021/08/09 09:04:32;;;;;;;5.90;1.13;;;;;;;;;;6218231;28;20045;-79
2021/08/09 09:07:34;;;;;;;2.65;1.08;;;;;;;;;;6218742;28;20076;-82
2021/08/09 09:10:36;;;;;;;2.88;1.10;;;;;;;;;;6247110;28;20117;-80
2021/08/09 09:13:59;;;;;;;1.52;1.10;;;;;;;;;;6251182;28;20120;-79
2021/08/09 09:17:00;;;;;;;2.60;1.05;;;;;;;;;;6240109;28;20064;-78
2021/08/09 09:20:25;;;;;;;4.50;1.20;;;;;;;;;;6229485;28;20053;-80
2021/08/09 09:23:30;;;;;;;1.95;1.10;;;;;;;;;;6226185;28;20038;-81
2021/08/09 09:26:33;;;;;;;2.95;1.10;;;;;;;;;;6206473;28;20046;-81
2021/08/09 09:29:39;;;;;;;1.02;0.88;;;;;;;;;;6250138;28;20065;-82
2021/08/09 09:32:56;;;;;;;1.90;1.17;;;;;;;;;;6201382;28;20042;-78
2021/08/09 09:36:02;;;;;;;2.65;1.10;;;;;;;;;;6237413;28;20128;-81
2021/08/09 09:39:04;;;;;;;1.33;1.00;;;;;;;;;;6249441;28;20037;-78
2021/08/09 09:42:10;;;;;;;3.72;1.30;;;;;;;;;;6249797;28;20418;-80
2021/08/09 09:45:29;;;;;;;3.67;1.35;;;;;;;;;;6230599;28;20043;-79
2021/08/09 09:48:35;;;;;;;3.28;1.00;;;;;;;;;;6247240;28;20080;-79
2021/08/09 09:51:42;;;;;;;1.77;1.00;;;;;;;;;;6248030;28;20045;-78
2021/08/09 09:54:43;;;;;;;3.00;1.10;;;;;;;;;;6251668;28;20048;-79
2021/08/09 09:57:46;;;;;;;3.17;1.20;;;;;;;;;;6227206;28;20607;-80
2021/08/09 10:00:50;;;;;;;3.95;1.20;;;;;;;;;;6226738;28;20046;-79
2021/08/09 10:03:51;;;;;;;3.75;1.27;;;;;;;;;;6237211;28;20491;-78
2021/08/09 10:06:53;;;;;;;4.30;1.08;;;;;;;;;;6243265;28;20052;-79
2021/08/09 10:09:55;;;;;;;3.40;1.30;;;;;;;;;;6243675;28;20045;-80
2021/08/09 10:12:58;;;;;;;4.00;1.38;;;;;;;;;;6247057;28;20065;-79
2021/08/09 10:16:03;;;;;;;3.63;1.30;;;;;;;;;;6246234;28;20053;-78
2021/08/09 10:19:07;;;;;;;4.63;2.00;;;;;;;;;;6244494;28;20047;-79
2021/08/09 10:22:08;;;;;;;2.55;1.10;;;;;;;;;;6250713;28;20464;-80
2021/08/09 10:25:42;;;;;;;3.33;1.52;;;;;;;;;;6250884;28;20049;-80
2021/08/09 10:28:53;;;;;;;2.58;1.00;;;;;;;;;;6252184;28;20042;-79
2021/08/09 10:32:21;;;;;;;4.30;1.10;;;;;;;;;;6254493;28;20049;-81
2021/08/09 10:35:32;;;;;;;2.42;1.00;;;;;;;;;;6236218;28;20053;-81
2021/08/09 10:38:44;;;;;;;3.55;1.27;;;;;;;;;;6249033;28;20049;-80
2021/08/09 10:41:53;;;;;;;3.05;1.23;;;;;;;;;;6238869;28;20076;-80
2021/08/09 10:44:55;;;;;;;3.78;1.05;;;;;;;;;;6246887;28;20065;-82
2021/08/09 10:47:58;;;;;;;1.92;1.17;;;;;;;;;;6245819;28;20107;-80
2021/08/09 10:50:59;;;;;;;3.92;1.20;;;;;;;;;;6247517;28;20072;-80
2021/08/09 10:54:24;;;;;;;2.83;1.17;;;;;;;;;;6245800;28;20046;-79
2021/08/09 10:57:44;;;;;;;2.13;0.90;;;;;;;;;;6241935;28;20087;-79
2021/08/09 11:00:50;;;;;;;2.28;0.80;;;;;;;;;;6236390;28;20037;-81
2021/08/09 11:04:06;;;;;;;2.85;0.95;;;;;;;;;;6246263;28;20096;-79
2021/08/09 11:07:17;;;;;;;2.47;1.00;;;;;;;;;;6249721;28;20067;-77
2021/08/09 11:10:51;;;;;;;2.50;1.13;;;;;;;;;;6250101;28;20052;-78
2021/08/09 11:13:56;;;;;;;4.70;1.23;;;;;;;;;;6239138;28;20072;-79
2021/08/09 11:17:02;;;;;;;2.95;1.00;;;;;;;;;;6252132;28;20049;-79
2021/08/09 11:20:20;;;;;;;1.88;1.10;;;;;;;;;;6254485;28;20103;-82
2021/08/09 11:23:22;;;;;;;3.30;1.30;;;;;;;;;;6253022;28;20573;-79
2021/08/09 11:26:26;;;;;;;2.13;1.17;;;;;;;;;;6249918;28;20048;-82
2021/08/09 11:29:27;;;;;;;2.45;0.85;;;;;;;;;;6248239;28;20059;-79
2021/08/09 11:32:42;;;;;;;3.05;1.00;;;;;;;;;;6250159;28;20037;-81
2021/08/09 11:35:45;;;;;;;3.17;1.10;;;;;;;;;;6249880;28;20132;-79
2021/08/09 11:38:47;;;;;;;2.90;1.20;;;;;;;;;;6247489;28;20121;-81
2021/08/09 11:41:55;;;;;;;1.83;0.80;;;;;;;;;;6251084;28;20052;-83
2021/08/09 11:45:24;;;;;;;3.60;1.20;;;;;;;;;;6250649;28;20132;-83
2021/08/09 11:48:28;;;;;;;4.47;1.02;;;;;;;;;;6249734;28;20112;-78
2021/08/09 11:51:30;;;;;;;2.85;1.20;;;;;;;;;;6235824;28;20081;-82
2021/08/09 11:54:38;;;;;;;2.85;1.10;;;;;;;;;;6208393;28;20054;-78
2021/08/09 11:57:40;;;;;;;4.50;1.33;;;;;;;;;;6208144;28;20046;-80
2021/08/09 12:00:42;;;;;;;2.80;1.20;;;;;;;;;;6220549;28;20048;-79
2021/08/09 12:04:04;;;;;;;2.07;1.13;;;;;;;;;;6228991;28;20046;-80
2021/08/09 12:07:17;;;;;;;2.33;1.17;;;;;;;;;;6246117;28;20049;-81
2021/08/09 12:10:28;;;;;;;5.45;1.38;;;;;;;;;;6251653;28;20042;-82
2021/08/09 12:13:31;;;;;;;2.47;1.20;;;;;;;;;;6235360;28;20073;-81
2021/08/09 12:16:51;;;;;;;3.15;1.38;;;;;;;;;;6235553;28;20122;-82
2021/08/09 12:19:53;;;;;;;3.58;1.27;;;;;;;;;;6253415;28;20052;-82
2021/08/09 12:22:55;;;;;;;2.78;1.00;;;;;;;;;;6234909;28;20053;-82
2021/08/09 12:25:57;;;;;;;1.63;1.15;;;;;;;;;;6253344;28;20041;-81
2021/08/09 12:29:05;;;;;;;3.17;1.10;;;;;;;;;;6246455;28;20109;-83
2021/08/09 12:32:15;;;;;;;3.63;1.17;;;;;;;;;;6228536;28;20065;-82
2021/08/09 12:35:19;;;;;;;3.50;1.30;;;;;;;;;;6228934;28;20109;-82
2021/08/09 12:38:21;;;;;;;3.40;1.10;;;;;;;;;;6229194;28;20109;-83
2021/08/09 12:41:27;;;;;;;3.50;1.30;;;;;;;;;;6250785;28;20065;-81
2021/08/09 12:44:29;;;;;;;4.10;1.20;;;;;;;;;;6253710;28;20468;-82
2021/08/09 12:47:39;;;;;;;2.35;1.00;;;;;;;;;;6239736;28;20049;-84
2021/08/09 12:50:43;;;;;;;3.05;1.30;;;;;;;;;;6236527;28;20451;-83
2021/08/09 12:53:49;;;;;;;4.10;1.23;;;;;;;;;;6237767;28;20043;-83
2021/08/09 12:56:55;;;;;;;3.85;1.40;;;;;;;;;;6255535;28;20045;-83
2021/08/09 12:59:56;;;;;;;2.75;1.40;;;;;;;;;;6246518;28;20041;-82
2021/08/09 13:02:58;;;;;;;2.67;1.15;;;;;;;;;;6249660;28;20735;-83
2021/08/09 13:06:01;;;;;;;3.28;1.23;;;;;;;;;;6244201;28;20045;-82
2021/08/09 13:09:03;;;;;;;3.55;1.00;;;;;;;;;;6234139;28;20093;-83
2021/08/09 13:12:05;;;;;;;3.83;1.30;;;;;;;;;;6235197;28;20041;-83
2021/08/09 13:15:06;;;;;;;4.03;1.15;;;;;;;;;;6229463;28;20101;-83
2021/08/09 13:18:10;;;;;;;1.50;1.10;;;;;;;;;;6215231;28;20057;-82
2021/08/09 13:21:13;;;;;;;2.47;1.33;;;;;;;;;;6248993;28;20156;-83
2021/08/09 13:24:15;;;;;;;3.22;1.30;;;;;;;;;;6230618;28;20049;-82
2021/08/09 13:27:16;;;;;;;5.05;1.55;;;;;;;;;;6250891;28;20103;-82
2021/08/09 13:30:20;;;;;;;2.53;1.00;;;;;;;;;;6241812;28;20056;-82
2021/08/09 13:33:21;;;;;;;3.10;1.30;;;;;;;;;;6247124;28;20069;-83
2021/08/09 13:36:25;;;;;;;2.92;1.25;;;;;;;;;;6224659;28;20125;-82
2021/08/09 13:39:28;;;;;;;3.10;1.30;;;;;;;;;;6242390;28;20057;-82
2021/08/09 13:42:29;;;;;;;3.35;1.10;;;;;;;;;;6243162;28;20041;-82
2021/08/09 13:45:31;;;;;;;2.80;1.08;;;;;;;;;;6244807;28;20426;-84
2021/08/09 13:48:37;;;;;;;2.25;1.02;;;;;;;;;;6242135;28;20065;-85
2021/08/09 13:51:39;;;;;;;3.40;1.10;;;;;;;;;;6226666;28;20049;-82
2021/08/09 13:54:41;;;;;;;4.68;1.20;;;;;;;;;;6216892;28;20037;-83
2021/08/09 13:57:42;;;;;;;1.95;1.00;;;;;;;;;;6225430;28;20150;-84
2021/08/09 14:00:52;;;;;;;3.03;1.10;;;;;;;;;;6254611;28;20049;-82
2021/08/09 14:04:01;;;;;;;2.58;1.00;;;;;;;;;;6170923;28;20046;-83
2021/08/09 14:07:07;;;;;;;3.00;1.20;;;;;;;;;;6204434;28;20072;-83
2021/08/09 14:10:12;;;;;;;1.30;1.00;;;;;;;;;;6225987;28;20119;-84
2021/08/09 14:13:22;;;;;;;4.57;1.30;;;;;;;;;;6207304;28;20057;-82
2021/08/09 14:16:42;;;;;;;3.70;1.00;;;;;;;;;;6189480;28;20109;-83
2021/08/09 14:19:50;;;;;;;1.77;1.00;;;;;;;;;;6181333;28;20045;-83
2021/08/09 14:23:08;;;;;;;2.53;1.10;;;;;;;;;;6136215;28;20417;-83
2021/08/09 14:26:16;;;;;;;3.72;1.20;;;;;;;;;;6179085;28;20052;-83
2021/08/09 14:29:23;;;;;;;3.20;1.35;;;;;;;;;;6155980;28;20192;-81
2021/08/09 14:32:41;;;;;;;3.00;1.08;;;;;;;;;;6135638;28;20088;-82
2021/08/09 14:35:50;;;;;;;3.20;1.08;;;;;;;;;;6140603;28;20053;-82
2021/08/09 14:39:01;;;;;;;2.72;1.00;;;;;;;;;;6121977;28;20045;-82
2021/08/09 14:42:18;;;;;;;2.80;1.00;;;;;;;;;;6140261;28;20046;-83
2021/08/09 14:46:05;;;;;;;1.80;0.98;;;;;;;;;;6148862;28;20046;-82
2021/08/09 14:49:22;;;;;;;3.17;1.15;;;;;;;;;;6194442;28;20042;-83
2021/08/09 14:52:24;;;;;;;3.28;1.10;;;;;;;;;;6147266;28;20137;-83
2021/08/09 14:55:29;;;;;;;2.92;0.80;;;;;;;;;;6179696;28;20049;-82
2021/08/09 14:58:34;;;;;;;2.00;0.90;;;;;;;;;;6196445;28;20097;-82
2021/08/09 15:01:36;;;;;;;2.17;0.95;;;;;;;;;;6173258;28;20070;-82
2021/08/09 15:05:05;;;;;;;1.95;1.00;;;;;;;;;;6172081;28;20060;-82
2021/08/09 15:08:07;;;;;;;2.50;1.20;;;;;;;;;;6172391;28;20049;-83
2021/08/09 15:11:10;;;;;;;3.03;1.20;;;;;;;;;;6202577;28;20117;-83
2021/08/09 15:14:47;;;;;;;2.05;0.82;;;;;;;;;;6166847;28;20148;-83
2021/08/09 15:18:30;;;;;;;;;;;;;;;;;;;;;
2021/08/09 15:21:53;;;;;;;4.22;0.95;;;;;;;;;;6169091;28;20054;-83
2021/08/09 15:25:03;;;;;;;4.30;1.17;;;;;;;;;;6167650;28;20046;-84
2021/08/09 15:28:11;;;;;;;3.35;1.00;;;;;;;;;;6183519;28;20053;-83
2021/08/09 15:31:27;;;;;;;;;;;;;;;;;;;;;
2021/08/09 15:34:55;;;;;;;3.63;0.80;;;;;;;;;;6176036;28;20052;-84
2021/08/09 15:38:03;;;;;;;4.80;1.15;;;;;;;;;;6156938;28;20054;-83
2021/08/09 15:41:15;;;;;;;3.55;1.00;;;;;;;;;;6220796;28;20051;-83
2021/08/09 15:44:21;;;;;;;3.75;1.20;;;;;;;;;;6165427;28;20052;-84
2021/08/09 15:47:24;;;;;;;2.63;1.00;;;;;;;;;;6221927;28;20103;-83
2021/08/09 15:50:26;;;;;;;;;;;;;;;;;;6209690;28;20055;-81
2021/08/09 15:53:28;;;;;;;1.70;0.90;;;;;;;;;;6244156;28;20301;-82
2021/08/09 15:56:29;;;;;;;2.30;1.00;;;;;;;;;;6245456;28;20041;-83
2021/08/09 15:59:31;;;;;;;2.72;1.00;;;;;;;;;;6242465;28;20128;-82
2021/08/09 16:02:34;;;;;;;3.08;0.90;;;;;;;;;;6248132;28;20052;-83
2021/08/09 16:05:37;;;;;;;3.45;1.40;;;;;;;;;;6220519;28;20041;-83
2021/08/09 16:08:38;;;;;;;2.97;1.00;;;;;;;;;;6219236;28;20117;-83
2021/08/09 16:11:40;;;;;;;4.07;1.30;;;;;;;;;;6184450;28;20046;-82
2021/08/09 16:14:48;;;;;;;2.53;1.17;;;;;;;;;;6221401;28;20057;-82
2021/08/09 16:17:50;;;;;;;2.10;1.00;;;;;;;;;;6220399;28;20038;-83
2021/08/09 16:21:04;;;;;;;3.28;1.15;;;;;;;;;;6233687;28;20051;-84
2021/08/09 16:24:06;;;;;;;2.10;0.80;;;;;;;;;;6219683;28;20168;-82
2021/08/09 16:27:08;;;;;;;2.43;1.07;;;;;;;;;;6214537;28;20045;-82
2021/08/09 16:30:10;;;;;;;1.90;1.10;;;;;;;;;;6218938;28;20056;-82
2021/08/09 16:33:11;;;;;;;1.45;0.90;;;;;;;;;;6217748;28;20104;-83
2021/08/09 16:36:13;;;;;;;3.00;1.10;;;;;;;;;;6216593;28;20052;-82
2021/08/09 16:39:17;;;;;;;2.45;1.20;;;;;;;;;;6218074;28;20067;-83
2021/08/09 16:42:19;;;;;;;4.57;1.00;;;;;;;;;;6227621;28;20045;-83
2021/08/09 16:45:20;;;;;;;2.45;1.23;;;;;;;;;;6241283;28;20158;-83
2021/08/09 16:48:22;;;;;;;5.70;1.30;;;;;;;;;;6243202;28;20053;-83
2021/08/09 16:51:24;;;;;;;1.92;1.25;;;;;;;;;;6241040;28;20127;-83
2021/08/09 16:54:25;;;;;;;1.63;1.20;;;;;;;;;;6243693;28;20048;-83
2021/08/09 16:57:28;;;;;;;2.83;1.42;;;;;;;;;;6232190;28;20069;-83
2021/08/09 17:00:36;;;;;;;2.83;1.40;;;;;;;;;;6200687;28;20097;-83
2021/08/09 17:03:38;;;;;;;2.33;1.30;;;;;;;;;;6208810;28;20434;-83
2021/08/09 17:06:40;;;;;;;1.55;1.00;;;;;;;;;;6221658;28;20179;-84
2021/08/09 17:09:42;;;;;;;3.28;1.10;;;;;;;;;;6242694;28;20045;-84
2021/08/09 17:12:45;;;;;;;3.55;1.20;;;;;;;;;;6225248;28;20088;-84
2021/08/09 17:15:49;;;;;;;3.60;1.13;;;;;;;;;;6209964;28;20065;-83
2021/08/09 17:18:52;;;;;;;1.85;1.10;;;;;;;;;;6221188;28;20053;-84
2021/08/09 17:21:55;;;;;;;2.15;1.27;;;;;;;;;;6237163;28;20119;-83
2021/08/09 17:24:58;;;;;;;4.00;1.20;;;;;;;;;;6233048;28;20046;-82
2021/08/09 17:27:59;;;;;;;2.15;1.10;;;;;;;;;;6250506;28;20137;-83
2021/08/09 17:31:04;;;;;;;2.45;1.13;;;;;;;;;;6237066;28;20128;-84
2021/08/09 17:34:09;;;;;;;2.00;1.20;;;;;;;;;;6218717;28;20038;-83
2021/08/09 17:37:13;;;;;;;2.28;1.30;;;;;;;;;;6232426;28;20041;-83
2021/08/09 17:40:14;;;;;;;4.80;1.33;;;;;;;;;;6237149;28;20037;-84
2021/08/09 17:43:16;;;;;;;1.60;1.08;;;;;;;;;;6215394;28;20063;-83
2021/08/09 17:46:17;;;;;;;2.42;1.00;;;;;;;;;;6231008;28;20062;-84
2021/08/09 17:49:19;;;;;;;3.83;1.10;;;;;;;;;;6204884;28;20378;-83
2021/08/09 17:52:22;;;;;;;2.75;0.90;;;;;;;;;;6217326;28;20547;-83
2021/08/09 17:55:23;;;;;;;2.50;1.15;;;;;;;;;;6214881;28;20045;-82
2021/08/09 17:58:25;;;;;;;1.63;1.10;;;;;;;;;;6212223;28;20050;-83
2021/08/09 18:01:27;;;;;;;1.70;0.90;;;;;;;;;;6247571;28;20461;-83
2021/08/09 18:04:33;;;;;;;2.75;1.00;;;;;;;;;;6226908;28;20128;-83
2021/08/09 18:07:37;;;;;;;2.30;1.02;;;;;;;;;;6176125;28;20415;-84
2021/08/09 18:10:39;;;;;;;3.20;0.90;;;;;;;;;;6158074;28;20053;-83
2021/08/09 18:13:42;;;;;;;2.20;1.30;;;;;;;;;;6193009;28;20053;-83
2021/08/09 18:16:44;;;;;;;3.03;1.33;;;;;;;;;;6205587;28;20050;-83
2021/08/09 18:19:46;;;;;;;3.55;1.30;;;;;;;;;;6194469;28;20050;-82
2021/08/09 18:22:47;;;;;;;4.75;1.17;;;;;;;;;;6176809;28;20129;-83
2021/08/09 18:25:49;;;;;;;2.47;1.25;;;;;;;;;;6180333;28;20439;-82
2021/08/09 18:28:51;;;;;;;3.13;1.10;;;;;;;;;;6212405;28;20069;-82
2021/08/09 18:31:53;;;;;;;5.40;1.45;;;;;;;;;;6206250;28;20045;-83
2021/08/09 18:34:54;;;;;;;4.10;1.20;;;;;;;;;;6220341;28;20042;-83